createdAt,value
2023-02-26T00:01:37.489Z,96430.50
2023-02-26T00:04:05.101Z,96424.09
2023-02-26T00:06:32.766Z,96422.16
2023-02-26T00:08:59.537Z,96412.69
2023-02-26T00:11:26.245Z,96411.53
2023-02-26T00:13:52.870Z,96415.31
2023-02-26T00:16:22.833Z,96423.19
2023-02-26T00:18:49.473Z,96431.81
2023-02-26T00:21:17.155Z,96440.91
2023-02-26T00:23:43.830Z,96449.09
2023-02-26T00:26:10.457Z,96445.66
2023-02-26T00:28:37.539Z,96451.38
2023-02-26T00:31:04.350Z,96456.03
2023-02-26T00:33:31.078Z,96455.25
2023-02-26T00:36:03.565Z,96458.28
2023-02-26T00:38:33.116Z,96447.06
2023-02-26T00:40:59.632Z,96450.34
2023-02-26T00:43:26.725Z,96450.56
2023-02-26T00:45:53.411Z,96446.19
2023-02-26T00:48:43.203Z,96438.88
2023-02-26T00:51:31.362Z,96428.84
2023-02-26T00:54:09.783Z,96424.78
2023-02-26T00:56:36.306Z,96422.06
2023-02-26T00:59:02.805Z,96415.81
2023-02-26T01:01:29.949Z,96413.88
2023-02-26T01:03:56.700Z,96420.88
2023-02-26T01:06:27.292Z,96415.63
2023-02-26T01:09:14.108Z,96413.78
2023-02-26T01:11:40.669Z,96423.53
2023-02-26T01:14:07.660Z,96433.94
2023-02-26T01:16:37.378Z,96423.09
2023-02-26T01:19:24.092Z,96422.78
2023-02-26T01:21:54.122Z,96422.69
2023-02-26T01:24:23.406Z,96433.31
2023-02-26T01:26:50.758Z,96431.16
2023-02-26T01:29:17.413Z,96422.69
2023-02-26T01:31:54.593Z,96428.13
2023-02-26T01:34:46.553Z,96434.06
2023-02-26T01:37:31.704Z,96452.09
2023-02-26T01:40:04.181Z,96444.13
2023-02-26T01:42:32.191Z,96444.69
2023-02-26T01:45:04.336Z,96429.72
2023-02-26T01:47:39.422Z,96424.06
2023-02-26T01:50:10.842Z,96410.66
2023-02-26T01:53:03.727Z,96402.88
2023-02-26T01:55:30.419Z,96402.81
2023-02-26T01:57:59.120Z,96417.78
2023-02-26T02:00:25.750Z,96419.81
2023-02-26T02:02:53.365Z,96422.69
2023-02-26T02:05:25.849Z,96427.59
2023-02-26T02:07:52.352Z,96432.41
2023-02-26T02:10:19.049Z,96444.63
2023-02-26T02:12:51.169Z,96443.88
2023-02-26T02:15:25.714Z,96443.38
2023-02-26T02:18:04.891Z,96442.22
2023-02-26T02:20:46.650Z,96441.44
2023-02-26T02:23:19.725Z,96446.66
2023-02-26T02:25:58.363Z,96434.47
2023-02-26T02:28:30.925Z,96446.34
2023-02-26T02:31:06.792Z,96450.31
2023-02-26T02:33:44.065Z,96460.66
2023-02-26T02:36:15.201Z,96453.13
2023-02-26T02:38:59.717Z,96448.47
2023-02-26T02:41:33.981Z,96451.78
2023-02-26T02:44:02.428Z,96453.44
2023-02-26T02:46:31.685Z,96458.91
2023-02-26T02:48:58.204Z,96462.25
2023-02-26T02:51:26.662Z,96461.75
2023-02-26T02:53:55.785Z,96473.06
2023-02-26T02:56:27.707Z,96479.75
2023-02-26T02:59:06.736Z,96477.53
2023-02-26T03:01:35.316Z,96485.31
2023-02-26T03:04:08.400Z,96494.06
2023-02-26T03:06:36.914Z,96501.56
2023-02-26T03:09:04.808Z,96500.34
2023-02-26T03:11:31.733Z,96499.41
2023-02-26T03:13:59.217Z,96499.69
2023-02-26T03:16:34.095Z,96493.03
2023-02-26T03:19:09.937Z,96502.22
2023-02-26T03:21:43.616Z,96517.19
2023-02-26T03:24:24.181Z,96524.47
2023-02-26T03:27:08.600Z,96528.47
2023-02-26T03:29:46.794Z,96520.31
2023-02-26T03:32:22.643Z,96525.66
2023-02-26T03:34:51.957Z,96531.47
2023-02-26T03:37:32.336Z,96528.88
2023-02-26T03:40:02.178Z,96530.16
2023-02-26T03:42:32.791Z,96534.53
2023-02-26T03:45:05.678Z,96536.72
2023-02-26T03:47:33.653Z,96519.78
2023-02-26T03:50:05.522Z,96517.75
2023-02-26T03:52:41.771Z,96524.25
2023-02-26T03:55:19.599Z,96527.31
2023-02-26T03:58:04.762Z,96519.03
2023-02-26T04:00:32.823Z,96512.00
2023-02-26T04:03:03.446Z,96504.09
2023-02-26T04:05:33.365Z,96512.13
2023-02-26T04:07:59.831Z,96526.34
2023-02-26T04:10:47.288Z,96533.09
2023-02-26T04:13:13.884Z,96526.84
2023-02-26T04:15:40.633Z,96533.63
2023-02-26T04:18:07.402Z,96534.47
2023-02-26T04:20:34.634Z,96545.00
2023-02-26T04:23:01.087Z,96538.97
2023-02-26T04:25:27.628Z,96546.28
2023-02-26T04:27:54.958Z,96546.84
2023-02-26T04:30:21.454Z,96547.34
2023-02-26T04:32:48.148Z,96552.84
2023-02-26T04:35:15.551Z,96553.56
2023-02-26T04:37:42.330Z,96548.34
2023-02-26T04:40:09.185Z,96561.34
2023-02-26T04:42:35.739Z,96556.50
2023-02-26T04:45:02.177Z,96562.75
2023-02-26T04:47:29.345Z,96569.56
2023-02-26T04:49:56.301Z,96564.41
2023-02-26T04:52:22.827Z,96568.81
2023-02-26T04:54:49.630Z,96573.72
2023-02-26T04:57:16.388Z,96577.00
2023-02-26T04:59:45.609Z,96582.31
2023-02-26T05:02:12.884Z,96577.13
2023-02-26T05:04:43.688Z,96581.06
2023-02-26T05:07:11.128Z,96574.72
2023-02-26T05:09:37.622Z,96576.38
2023-02-26T05:12:04.135Z,96590.50
2023-02-26T05:14:30.890Z,96590.03
2023-02-26T05:16:58.123Z,96586.63
2023-02-26T05:19:24.689Z,96585.88
2023-02-26T05:21:51.189Z,96584.41
2023-02-26T05:24:17.844Z,96586.19
2023-02-26T05:26:44.481Z,96601.97
2023-02-26T05:29:10.993Z,96596.00
2023-02-26T05:31:37.488Z,96592.38
2023-02-26T05:34:04.210Z,96602.66
2023-02-26T05:36:30.663Z,96597.91
2023-02-26T05:38:57.142Z,96608.81
2023-02-26T05:41:23.662Z,96608.81
2023-02-26T05:43:50.452Z,96601.81
2023-02-26T05:46:17.010Z,96597.91
2023-02-26T05:48:45.693Z,96603.72
2023-02-26T05:51:12.375Z,96606.44
2023-02-26T05:53:38.924Z,96607.06
2023-02-26T05:56:05.995Z,96601.03
2023-02-26T05:58:33.951Z,96604.97
2023-02-26T06:01:00.747Z,96603.72
2023-02-26T06:03:27.239Z,96611.75
2023-02-26T06:05:53.754Z,96613.22
2023-02-26T06:08:20.260Z,96611.97
2023-02-26T06:10:46.763Z,96617.81
2023-02-26T06:13:13.262Z,96632.78
2023-02-26T06:15:39.692Z,96643.13
2023-02-26T06:18:06.124Z,96640.97
2023-02-26T06:20:32.609Z,96648.91
2023-02-26T06:22:59.088Z,96655.56
2023-02-26T06:25:25.632Z,96665.06
2023-02-26T06:27:52.157Z,96661.81
2023-02-26T06:30:19.190Z,96660.09
2023-02-26T06:32:45.730Z,96670.84
2023-02-26T06:35:12.325Z,96666.16
2023-02-26T06:37:38.801Z,96663.38
2023-02-26T06:40:05.863Z,96663.59
2023-02-26T06:42:32.331Z,96668.16
2023-02-26T06:44:58.864Z,96659.63
2023-02-26T06:47:25.366Z,96659.06
2023-02-26T06:49:51.854Z,96661.38
2023-02-26T06:52:18.280Z,96682.09
2023-02-26T06:54:44.890Z,96670.09
2023-02-26T06:57:11.381Z,96678.41
2023-02-26T06:59:37.944Z,96677.69
2023-02-26T07:02:04.499Z,96681.00
2023-02-26T07:04:31.013Z,96676.41
2023-02-26T07:06:57.493Z,96681.16
2023-02-26T07:09:23.945Z,96694.25
2023-02-26T07:11:50.875Z,96690.59
2023-02-26T07:14:17.503Z,96687.06
2023-02-26T07:16:44.004Z,96686.53
2023-02-26T07:19:10.459Z,96686.41
2023-02-26T07:21:36.938Z,96690.88
2023-02-26T07:24:03.485Z,96698.53
2023-02-26T07:26:29.952Z,96703.06
2023-02-26T07:28:56.416Z,96704.50
2023-02-26T07:31:22.961Z,96696.00
2023-02-26T07:33:49.510Z,96697.84
2023-02-26T07:36:15.983Z,96704.06
2023-02-26T07:38:42.432Z,96713.81
2023-02-26T07:41:09.062Z,96708.75
2023-02-26T07:43:35.608Z,96713.03
2023-02-26T07:46:02.467Z,96718.91
2023-02-26T07:48:29.003Z,96706.75
2023-02-26T07:50:55.457Z,96714.72
2023-02-26T07:53:21.896Z,96716.63
2023-02-26T07:55:48.500Z,96708.59
2023-02-26T07:58:14.925Z,96717.16
2023-02-26T08:00:41.371Z,96712.53
2023-02-26T08:03:07.826Z,96712.97
2023-02-26T08:05:34.869Z,96724.59
2023-02-26T08:08:02.060Z,96722.16
2023-02-26T08:10:28.903Z,96725.66
2023-02-26T08:12:55.593Z,96730.06
2023-02-26T08:15:22.074Z,96734.13
2023-02-26T08:17:48.536Z,96733.22
2023-02-26T08:20:16.213Z,96741.34
2023-02-26T08:22:42.775Z,96743.94
2023-02-26T08:25:09.331Z,96741.03
2023-02-26T08:27:35.805Z,96743.16
2023-02-26T08:30:03.058Z,96742.66
2023-02-26T08:32:29.675Z,96760.97
2023-02-26T08:34:56.195Z,96773.34
2023-02-26T08:37:25.531Z,96776.03
2023-02-26T08:39:52.824Z,96784.59
2023-02-26T08:42:20.477Z,96772.47
2023-02-26T08:44:47.310Z,96777.47
2023-02-26T08:47:19.129Z,96784.94
2023-02-26T08:49:51.069Z,96799.94
2023-02-26T08:52:17.615Z,96794.16
2023-02-26T08:54:44.155Z,96819.97
2023-02-26T08:57:10.648Z,96824.72
2023-02-26T08:59:37.076Z,96829.53
2023-02-26T09:02:03.620Z,96829.34
2023-02-26T09:04:31.239Z,96831.75
2023-02-26T09:06:57.877Z,96831.69
2023-02-26T09:09:24.385Z,96835.38
2023-02-26T09:11:51.010Z,96843.09
2023-02-26T09:14:17.802Z,96844.22
2023-02-26T09:16:44.374Z,96827.91
2023-02-26T09:19:11.200Z,96830.66
2023-02-26T09:21:37.661Z,96841.94
2023-02-26T09:24:04.193Z,96834.41
2023-02-26T09:26:30.731Z,96848.44
2023-02-26T09:28:57.247Z,96852.50
2023-02-26T09:31:23.828Z,96843.09
2023-02-26T09:33:50.333Z,96849.28
2023-02-26T09:36:16.781Z,96851.69
2023-02-26T09:38:44.273Z,96848.44
2023-02-26T09:41:17.328Z,96852.66
2023-02-26T09:44:02.687Z,96844.75
2023-02-26T09:46:44.639Z,96856.63
2023-02-26T09:49:20.183Z,96863.28
2023-02-26T09:51:50.267Z,96851.72
2023-02-26T09:54:22.560Z,96852.00
2023-02-26T09:56:49.941Z,96847.31
2023-02-26T09:59:16.411Z,96868.69
2023-02-26T10:01:56.750Z,96870.97
2023-02-26T10:04:41.761Z,96860.41
2023-02-26T10:07:20.220Z,96855.56
2023-02-26T10:09:49.463Z,96856.81
2023-02-26T10:12:20.659Z,96864.91
2023-02-26T10:14:47.098Z,96872.63
2023-02-26T10:17:16.630Z,96868.97
2023-02-26T10:19:44.590Z,96872.81
2023-02-26T10:22:11.000Z,96875.06
2023-02-26T10:24:37.400Z,96874.44
2023-02-26T10:27:09.477Z,96881.66
2023-02-26T10:29:56.162Z,96882.94
2023-02-26T10:32:31.840Z,96883.53
2023-02-26T10:35:00.455Z,96872.91
2023-02-26T10:37:36.111Z,96863.03
2023-02-26T10:40:38.173Z,96872.81
2023-02-26T10:43:10.735Z,96883.75
2023-02-26T10:45:43.860Z,96879.09
2023-02-26T10:48:29.392Z,96887.53
2023-02-26T10:50:57.533Z,96884.81
2023-02-26T10:53:26.056Z,96902.88
2023-02-26T10:55:56.188Z,96891.34
2023-02-26T10:58:24.851Z,96904.22
2023-02-26T11:00:54.250Z,96907.78
2023-02-26T11:03:22.224Z,96907.47
2023-02-26T11:05:48.896Z,96903.47
2023-02-26T11:08:17.973Z,96896.81
2023-02-26T11:10:50.606Z,96889.19
2023-02-26T11:13:17.209Z,96883.22
2023-02-26T11:15:46.242Z,96880.56
2023-02-26T11:18:18.350Z,96888.38
2023-02-26T11:20:45.696Z,96891.16
2023-02-26T11:23:13.464Z,96891.06
2023-02-26T11:25:40.380Z,96901.81
2023-02-26T11:28:08.339Z,96891.69
2023-02-26T11:30:38.523Z,96892.66
2023-02-26T11:33:14.458Z,96892.03
2023-02-26T11:35:41.076Z,96890.59
2023-02-26T11:38:17.141Z,96888.38
2023-02-26T11:40:46.233Z,96877.31
2023-02-26T11:43:15.274Z,96894.41
2023-02-26T11:45:44.053Z,96889.38
2023-02-26T11:48:13.692Z,96880.28
2023-02-26T11:50:43.512Z,96893.88
2023-02-26T11:53:22.844Z,96896.69
2023-02-26T11:55:52.452Z,96900.47
2023-02-26T11:58:20.502Z,96896.69
2023-02-26T12:00:47.407Z,96893.44
2023-02-26T12:03:20.180Z,96898.81
2023-02-26T12:05:46.844Z,96894.41
2023-02-26T12:08:19.403Z,96906.91
2023-02-26T12:11:06.143Z,96889.28
2023-02-26T12:13:32.584Z,96895.66
2023-02-26T12:16:04.776Z,96905.81
2023-02-26T12:18:34.273Z,96897.59
2023-02-26T12:21:16.483Z,96902.44
2023-02-26T12:23:42.903Z,96916.59
2023-02-26T12:26:09.305Z,96921.00
2023-02-26T12:28:54.126Z,96930.25
2023-02-26T12:31:27.274Z,96925.34
2023-02-26T12:34:03.246Z,96939.94
2023-02-26T12:36:48.441Z,96939.28
2023-02-26T12:39:28.338Z,96945.78
2023-02-26T12:42:18.048Z,96955.16
2023-02-26T12:45:03.240Z,96954.75
2023-02-26T12:47:48.626Z,96969.09
2023-02-26T12:50:34.108Z,96960.22
2023-02-26T12:53:03.773Z,96961.06
2023-02-26T12:55:33.274Z,96961.25
2023-02-26T12:58:08.736Z,96970.41
2023-02-26T13:00:46.920Z,96971.19
2023-02-26T13:03:16.140Z,96972.03
2023-02-26T13:05:59.017Z,96972.25
2023-02-26T13:08:39.800Z,96983.31
2023-02-26T13:11:18.549Z,96982.94
2023-02-26T13:14:03.873Z,96989.34
2023-02-26T13:16:46.000Z,96986.72
2023-02-26T13:19:24.010Z,96978.84
2023-02-26T13:21:53.754Z,96991.97
2023-02-26T13:24:26.057Z,96995.19
2023-02-26T13:26:53.895Z,96991.00
2023-02-26T13:29:24.329Z,96998.28
2023-02-26T13:31:53.376Z,97007.28
2023-02-26T13:34:25.852Z,97008.44
2023-02-26T13:36:52.868Z,97001.00
2023-02-26T13:39:29.071Z,97002.97
2023-02-26T13:42:04.761Z,97010.72
2023-02-26T13:44:34.410Z,97012.13
2023-02-26T13:47:27.685Z,97009.38
2023-02-26T13:49:57.156Z,97000.16
2023-02-26T13:52:32.895Z,97009.06
2023-02-26T13:54:59.601Z,97013.72
2023-02-26T13:57:34.180Z,97008.84
2023-02-26T14:00:11.355Z,97006.19
2023-02-26T14:02:44.689Z,97011.81
2023-02-26T14:05:29.082Z,97018.50
2023-02-26T14:07:56.479Z,97021.28
2023-02-26T14:10:24.877Z,97024.97
2023-02-26T14:13:22.387Z,97023.16
2023-02-26T14:15:48.793Z,97034.59
2023-02-26T14:18:30.639Z,97035.84
2023-02-26T14:21:15.847Z,97041.25
2023-02-26T14:23:46.989Z,97044.75
2023-02-26T14:26:16.790Z,97028.50
2023-02-26T14:28:55.950Z,97043.22
2023-02-26T14:31:26.566Z,97036.53
2023-02-26T14:33:56.366Z,97036.16
2023-02-26T14:36:46.590Z,97030.56
2023-02-26T14:39:20.133Z,97034.88
2023-02-26T14:41:46.656Z,97043.00
2023-02-26T14:44:20.912Z,97045.88
2023-02-26T14:46:48.565Z,97042.91
2023-02-26T14:49:19.966Z,97040.09
2023-02-26T14:51:54.728Z,97036.38
2023-02-26T14:54:30.559Z,97050.31
2023-02-26T14:57:13.532Z,97053.97
2023-02-26T14:59:51.542Z,97062.69
2023-02-26T15:02:32.215Z,97062.31
2023-02-26T15:05:31.302Z,97068.66
2023-02-26T15:07:57.810Z,97074.44
2023-02-26T15:10:27.052Z,97073.44
2023-02-26T15:12:53.571Z,97073.00
2023-02-26T15:15:28.356Z,97084.53
2023-02-26T15:17:54.916Z,97084.81
2023-02-26T15:20:21.355Z,97089.25
2023-02-26T15:23:13.914Z,97094.31
2023-02-26T15:25:44.828Z,97100.78
2023-02-26T15:28:15.347Z,97098.34
2023-02-26T15:30:43.450Z,97101.53
2023-02-26T15:33:12.464Z,97103.63
2023-02-26T15:35:39.025Z,97112.00
2023-02-26T15:38:05.573Z,97115.34
2023-02-26T15:40:34.648Z,97116.88
2023-02-26T15:43:02.008Z,97116.50
2023-02-26T15:45:33.484Z,97123.66
2023-02-26T15:48:02.795Z,97134.28
2023-02-26T15:50:31.102Z,97137.16
2023-02-26T15:52:59.872Z,97135.16
2023-02-26T15:55:26.676Z,97141.47
2023-02-26T15:57:54.703Z,97143.78
2023-02-26T16:00:25.677Z,97147.38
2023-02-26T16:02:59.189Z,97144.34
2023-02-26T16:05:26.341Z,97159.91
2023-02-26T16:07:52.882Z,97153.72
2023-02-26T16:10:32.788Z,97152.59
2023-02-26T16:13:00.444Z,97158.28
2023-02-26T16:15:32.777Z,97160.59
2023-02-26T16:18:00.372Z,97155.56
2023-02-26T16:20:27.534Z,97165.03
2023-02-26T16:22:56.969Z,97162.41
2023-02-26T16:25:43.696Z,97173.59
2023-02-26T16:28:19.203Z,97170.69
2023-02-26T16:30:48.041Z,97183.50
2023-02-26T16:33:15.672Z,97187.50
2023-02-26T16:35:45.020Z,97190.72
2023-02-26T16:38:22.417Z,97200.19
2023-02-26T16:40:56.838Z,97194.44
2023-02-26T16:43:23.352Z,97204.13
2023-02-26T16:45:51.121Z,97208.97
2023-02-26T16:48:26.058Z,97208.03
2023-02-26T16:51:13.988Z,97225.09
2023-02-26T16:53:44.005Z,97224.59
2023-02-26T16:56:16.910Z,97228.13
2023-02-26T16:58:50.001Z,97232.97
2023-02-26T17:01:17.772Z,97239.50
2023-02-26T17:03:50.659Z,97246.63
2023-02-26T17:06:19.550Z,97254.75
2023-02-26T17:08:50.324Z,97249.56
2023-02-26T17:11:30.662Z,97257.91
2023-02-26T17:14:02.593Z,97266.84
2023-02-26T17:16:29.527Z,97267.72
2023-02-26T17:18:56.216Z,97271.94
2023-02-26T17:21:22.707Z,97281.75
2023-02-26T17:23:49.264Z,97277.25
2023-02-26T17:26:15.719Z,97279.31
2023-02-26T17:28:42.816Z,97289.41
2023-02-26T17:31:10.764Z,97281.88
2023-02-26T17:33:38.153Z,97291.03
2023-02-26T17:36:04.958Z,97296.91
2023-02-26T17:38:33.416Z,97299.56
2023-02-26T17:41:00.720Z,97297.38
2023-02-26T17:43:28.043Z,97300.28
2023-02-26T17:45:54.577Z,97301.56
2023-02-26T17:48:21.786Z,97303.53
2023-02-26T17:50:48.303Z,97306.88
2023-02-26T17:53:16.180Z,97305.03
2023-02-26T17:55:43.059Z,97310.16
2023-02-26T17:58:28.607Z,97308.44
2023-02-26T18:00:55.317Z,97308.91
2023-02-26T18:03:21.989Z,97316.88
2023-02-26T18:05:49.123Z,97317.88
2023-02-26T18:08:19.074Z,97320.13
2023-02-26T18:10:45.558Z,97321.25
2023-02-26T18:13:12.032Z,97327.25
2023-02-26T18:15:38.697Z,97334.09
2023-02-26T18:18:06.343Z,97328.47
2023-02-26T18:20:32.800Z,97330.06
2023-02-26T18:22:59.263Z,97341.13
2023-02-26T18:25:26.910Z,97342.22
2023-02-26T18:27:59.868Z,97342.41
2023-02-26T18:30:28.579Z,97336.09
2023-02-26T18:32:55.912Z,97341.88
2023-02-26T18:35:23.189Z,97348.25
2023-02-26T18:37:51.220Z,97342.78
2023-02-26T18:40:18.800Z,97336.38
2023-02-26T18:42:45.206Z,97348.00
2023-02-26T18:45:12.120Z,97348.66
2023-02-26T18:47:39.080Z,97347.81
2023-02-26T18:50:06.331Z,97347.75
2023-02-26T18:52:32.985Z,97348.44
2023-02-26T18:55:00.679Z,97349.50
2023-02-26T18:57:27.149Z,97357.88
2023-02-26T18:59:53.568Z,97355.09
2023-02-26T19:02:20.034Z,97353.97
2023-02-26T19:04:47.347Z,97362.16
2023-02-26T19:07:14.212Z,97355.31
2023-02-26T19:09:40.775Z,97359.59
2023-02-26T19:12:09.039Z,97359.59
2023-02-26T19:14:36.746Z,97364.25
2023-02-26T19:17:03.219Z,97359.38
2023-02-26T19:19:29.908Z,97362.09
2023-02-26T19:21:57.767Z,97369.66
2023-02-26T19:24:24.542Z,97375.50
2023-02-26T19:26:51.119Z,97369.00
2023-02-26T19:29:19.250Z,97374.06
2023-02-26T19:31:46.683Z,97370.91
2023-02-26T19:34:14.128Z,97372.34
2023-02-26T19:36:43.436Z,97385.44
2023-02-26T19:39:11.786Z,97387.22
2023-02-26T19:41:38.269Z,97392.31
2023-02-26T19:44:04.859Z,97399.75
2023-02-26T19:46:31.384Z,97403.38
2023-02-26T19:48:57.969Z,97405.00
2023-02-26T19:51:24.679Z,97409.03
2023-02-26T19:53:51.469Z,97415.47
2023-02-26T19:56:18.025Z,97414.34
2023-02-26T19:58:44.526Z,97419.66
2023-02-26T20:01:11.060Z,97418.13
2023-02-26T20:03:37.568Z,97426.69
2023-02-26T20:06:04.146Z,97428.91
2023-02-26T20:08:30.692Z,97430.59
2023-02-26T20:10:57.967Z,97434.09
2023-02-26T20:13:26.760Z,97432.59
2023-02-26T20:15:53.687Z,97441.75
2023-02-26T20:18:20.216Z,97450.03
2023-02-26T20:20:46.690Z,97453.25
2023-02-26T20:23:13.122Z,97453.00
2023-02-26T20:25:39.676Z,97458.75
2023-02-26T20:28:06.169Z,97459.59
2023-02-26T20:30:32.860Z,97455.97
2023-02-26T20:32:59.386Z,97458.72
2023-02-26T20:35:25.902Z,97473.69
2023-02-26T20:37:52.408Z,97474.25
2023-02-26T20:40:18.922Z,97479.56
2023-02-26T20:42:45.389Z,97482.22
2023-02-26T20:45:12.950Z,97488.88
2023-02-26T20:47:39.548Z,97490.41
2023-02-26T20:50:06.333Z,97490.00
2023-02-26T20:52:32.771Z,97497.66
2023-02-26T20:54:59.239Z,97505.06
2023-02-26T20:57:25.767Z,97502.03
2023-02-26T20:59:52.233Z,97504.38
2023-02-26T21:02:20.771Z,97507.00
2023-02-26T21:04:47.679Z,97512.94
2023-02-26T21:07:17.642Z,97513.06
2023-02-26T21:09:47.862Z,97511.31
2023-02-26T21:12:14.968Z,97520.28
2023-02-26T21:14:41.448Z,97531.59
2023-02-26T21:17:08.081Z,97516.31
2023-02-26T21:19:36.085Z,97524.81
2023-02-26T21:22:03.551Z,97524.69
2023-02-26T21:24:30.394Z,97532.94
2023-02-26T21:26:57.178Z,97533.63
2023-02-26T21:29:23.986Z,97536.09
2023-02-26T21:31:53.702Z,97530.00
2023-02-26T21:34:33.146Z,97523.78
2023-02-26T21:37:04.483Z,97529.03
2023-02-26T21:39:31.513Z,97531.13
2023-02-26T21:42:00.484Z,97537.06
2023-02-26T21:44:27.622Z,97535.97
2023-02-26T21:46:54.437Z,97526.44
2023-02-26T21:49:21.239Z,97542.72
2023-02-26T21:51:47.982Z,97539.63
2023-02-26T21:54:14.802Z,97546.78
2023-02-26T21:56:41.617Z,97546.88
2023-02-26T21:59:08.260Z,97545.75
2023-02-26T22:01:34.774Z,97554.69
2023-02-26T22:04:01.184Z,97549.88
2023-02-26T22:06:27.711Z,97549.53
2023-02-26T22:08:54.138Z,97558.19
2023-02-26T22:11:20.690Z,97557.72
2023-02-26T22:13:48.654Z,97557.16
2023-02-26T22:16:15.524Z,97562.09
2023-02-26T22:18:42.117Z,97560.38
2023-02-26T22:21:08.861Z,97563.44
2023-02-26T22:23:35.696Z,97564.66
2023-02-26T22:26:02.443Z,97563.97
2023-02-26T22:28:29.041Z,97569.41
2023-02-26T22:30:58.506Z,97574.56
2023-02-26T22:33:25.412Z,97571.59
2023-02-26T22:35:55.398Z,97580.84
2023-02-26T22:38:21.905Z,97586.81
2023-02-26T22:40:48.621Z,97585.28
2023-02-26T22:43:15.372Z,97582.59
2023-02-26T22:45:41.992Z,97592.97
2023-02-26T22:48:08.506Z,97600.78
2023-02-26T22:50:35.058Z,97602.69
2023-02-26T22:53:01.621Z,97594.66
2023-02-26T22:55:28.112Z,97607.31
2023-02-26T22:57:54.602Z,97607.78
2023-02-26T23:00:21.244Z,97610.25
2023-02-26T23:02:48.493Z,97616.50
2023-02-26T23:05:15.077Z,97604.69
2023-02-26T23:07:41.557Z,97609.91
2023-02-26T23:10:11.398Z,97613.28
2023-02-26T23:12:38.529Z,97612.34
2023-02-26T23:15:05.795Z,97617.66
2023-02-26T23:17:32.512Z,97624.09
2023-02-26T23:19:59.133Z,97621.06
2023-02-26T23:22:25.765Z,97623.69
2023-02-26T23:24:52.275Z,97627.69
2023-02-26T23:27:18.905Z,97629.50
2023-02-26T23:29:45.759Z,97630.16
2023-02-26T23:32:12.790Z,97629.94
2023-02-26T23:34:39.524Z,97637.22
2023-02-26T23:37:06.124Z,97633.16
2023-02-26T23:39:32.688Z,97642.81
2023-02-26T23:41:59.540Z,97645.66
2023-02-26T23:44:26.024Z,97644.78
2023-02-26T23:46:52.483Z,97656.25
2023-02-26T23:49:19.021Z,97654.00
2023-02-26T23:51:46.065Z,97662.53
2023-02-26T23:54:13.383Z,97647.56
2023-02-26T23:56:40.058Z,97653.72
2023-02-26T23:59:06.604Z,97650.94
